createdAt,value
2023-04-18T00:01:16.079Z,77.10
2023-04-18T00:03:45.850Z,76.90
2023-04-18T00:06:14.094Z,76.60
2023-04-18T00:08:41.182Z,76.50
2023-04-18T00:11:08.521Z,76.40
2023-04-18T00:13:35.568Z,76.30
2023-04-18T00:16:02.540Z,76.20
2023-04-18T00:18:29.537Z,76.00
2023-04-18T00:20:56.951Z,75.90
2023-04-18T00:23:30.527Z,75.70
2023-04-18T00:25:57.488Z,75.60
2023-04-18T00:28:24.487Z,75.50
2023-04-18T00:30:51.506Z,75.40
2023-04-18T00:33:18.508Z,75.40
2023-04-18T00:35:45.419Z,75.40
2023-04-18T00:38:12.402Z,75.30
2023-04-18T00:40:41.133Z,75.20
2023-04-18T00:43:08.550Z,75.10
2023-04-18T00:45:35.676Z,75.20
2023-04-18T00:48:03.209Z,75.20
2023-04-18T00:50:30.516Z,75.30
2023-04-18T00:52:58.433Z,75.30
2023-04-18T00:55:25.845Z,75.30
2023-04-18T00:57:52.838Z,75.30
2023-04-18T01:00:22.951Z,75.30
2023-04-18T01:02:53.195Z,75.30
2023-04-18T01:05:21.575Z,75.30
2023-04-18T01:07:49.044Z,75.40
2023-04-18T01:10:16.208Z,75.30
2023-04-18T01:12:43.143Z,75.40
2023-04-18T01:15:10.474Z,75.90
2023-04-18T01:17:38.570Z,75.30
2023-04-18T01:20:06.391Z,75.30
2023-04-18T01:22:33.815Z,75.30
2023-04-18T01:25:00.774Z,75.40
2023-04-18T01:27:27.761Z,75.40
2023-04-18T01:29:54.749Z,75.30
2023-04-18T01:32:22.205Z,75.20
2023-04-18T01:34:49.341Z,75.10
2023-04-18T01:37:16.272Z,75.20
2023-04-18T01:39:43.190Z,75.30
2023-04-18T01:42:10.211Z,75.20
2023-04-18T01:44:37.755Z,75.20
2023-04-18T01:47:05.922Z,75.10
2023-04-18T01:49:33.266Z,75.10
2023-04-18T01:52:02.929Z,75.10
2023-04-18T01:54:29.980Z,75.30
2023-04-18T01:56:56.875Z,75.10
2023-04-18T01:59:23.923Z,75.10
2023-04-18T02:01:50.995Z,75.10
2023-04-18T02:04:18.037Z,75.20
2023-04-18T02:06:46.916Z,75.10
2023-04-18T02:09:13.841Z,75.00
2023-04-18T02:11:43.451Z,75.20
2023-04-18T02:14:10.686Z,75.20
2023-04-18T02:16:38.905Z,75.10
2023-04-18T02:19:06.380Z,75.20
2023-04-18T02:21:34.742Z,75.20
2023-04-18T02:24:01.600Z,75.30
2023-04-18T02:26:28.683Z,75.20
2023-04-18T02:28:58.676Z,75.20
2023-04-18T02:31:25.733Z,75.20
2023-04-18T02:33:52.640Z,75.30
2023-04-18T02:36:21.861Z,75.20
2023-04-18T02:38:48.934Z,75.20
2023-04-18T02:41:19.396Z,75.20
2023-04-18T02:43:47.106Z,75.40
2023-04-18T02:46:15.993Z,75.20
2023-04-18T02:48:45.664Z,75.30
2023-04-18T02:51:13.664Z,75.30
2023-04-18T02:53:41.678Z,75.30
2023-04-18T02:56:09.001Z,75.40
2023-04-18T02:58:58.828Z,75.40
2023-04-18T03:01:57.739Z,75.40
2023-04-18T03:04:25.100Z,75.50
2023-04-18T03:07:03.793Z,75.50
2023-04-18T03:09:36.696Z,75.60
2023-04-18T03:12:09.927Z,75.70
2023-04-18T03:14:37.985Z,75.70
2023-04-18T03:17:05.778Z,75.80
2023-04-18T03:19:38.654Z,75.80
2023-04-18T03:22:11.776Z,75.60
2023-04-18T03:24:46.083Z,75.70
2023-04-18T03:27:13.647Z,75.80
2023-04-18T03:29:42.703Z,75.90
2023-04-18T03:32:09.680Z,75.90
2023-04-18T03:34:36.647Z,75.90
2023-04-18T03:37:06.708Z,75.90
2023-04-18T03:39:39.253Z,75.90
2023-04-18T03:42:06.222Z,75.90
2023-04-18T03:44:34.511Z,75.60
2023-04-18T03:47:01.595Z,75.50
2023-04-18T03:49:30.955Z,75.50
2023-04-18T03:51:57.987Z,75.60
2023-04-18T03:54:25.047Z,75.60
2023-04-18T03:56:52.334Z,75.70
2023-04-18T03:59:19.920Z,75.70
2023-04-18T04:01:49.940Z,75.90
2023-04-18T04:04:18.448Z,75.90
2023-04-18T04:06:46.202Z,75.90
2023-04-18T04:09:13.574Z,76.00
2023-04-18T04:11:40.680Z,76.00
2023-04-18T04:14:10.758Z,76.00
2023-04-18T04:16:43.129Z,75.80
2023-04-18T04:19:12.204Z,75.80
2023-04-18T04:21:46.138Z,75.70
2023-04-18T04:24:15.941Z,75.70
2023-04-18T04:26:46.843Z,75.70
2023-04-18T04:29:18.964Z,75.70
2023-04-18T04:31:47.728Z,75.70
2023-04-18T04:34:21.996Z,75.80
2023-04-18T04:36:49.172Z,75.80
2023-04-18T04:39:17.449Z,75.80
2023-04-18T04:42:16.361Z,76.00
2023-04-18T04:44:54.524Z,76.00
2023-04-18T04:47:22.453Z,75.90
2023-04-18T04:49:49.485Z,76.00
2023-04-18T04:52:16.447Z,76.20
2023-04-18T04:54:45.929Z,76.30
2023-04-18T04:57:15.770Z,76.30
2023-04-18T04:59:43.066Z,76.30
2023-04-18T05:02:11.084Z,76.30
2023-04-18T05:04:38.186Z,76.30
2023-04-18T05:07:06.361Z,76.50
2023-04-18T05:09:33.389Z,76.50
2023-04-18T05:12:01.536Z,76.50
2023-04-18T05:14:34.526Z,76.50
2023-04-18T05:17:01.607Z,76.50
2023-04-18T05:19:28.722Z,76.60
2023-04-18T05:21:56.048Z,76.80
2023-04-18T05:24:22.968Z,76.70
2023-04-18T05:26:50.354Z,76.80
2023-04-18T05:29:17.396Z,76.80
2023-04-18T05:31:44.377Z,76.70
2023-04-18T05:34:11.565Z,76.80
2023-04-18T05:36:38.745Z,76.70
2023-04-18T05:39:08.401Z,76.80
2023-04-18T05:41:35.465Z,76.90
2023-04-18T05:44:05.697Z,76.90
2023-04-18T05:46:33.284Z,77.00
2023-04-18T05:49:00.419Z,76.90
2023-04-18T05:51:28.509Z,76.80
2023-04-18T05:53:55.702Z,76.80
2023-04-18T05:56:22.661Z,76.70
2023-04-18T05:58:52.401Z,76.70
2023-04-18T06:01:19.498Z,76.70
2023-04-18T06:03:47.139Z,76.80
2023-04-18T06:06:14.546Z,76.70
2023-04-18T06:08:44.453Z,76.70
2023-04-18T06:11:11.646Z,76.70
2023-04-18T06:13:38.646Z,76.70
2023-04-18T06:16:05.922Z,76.80
2023-04-18T06:18:33.207Z,76.80
2023-04-18T06:21:00.317Z,76.70
2023-04-18T06:23:27.279Z,76.80
2023-04-18T06:25:54.469Z,76.70
2023-04-18T06:28:21.342Z,76.90
2023-04-18T06:30:48.327Z,76.80
2023-04-18T06:33:15.491Z,76.70
2023-04-18T06:35:42.455Z,76.60
2023-04-18T06:38:11.293Z,76.60
2023-04-18T06:40:38.309Z,76.50
2023-04-18T06:43:05.613Z,76.60
2023-04-18T06:45:32.757Z,76.50
2023-04-18T06:47:59.888Z,76.50
2023-04-18T06:50:27.479Z,76.40
2023-04-18T06:52:54.739Z,76.40
2023-04-18T06:55:21.783Z,76.30
2023-04-18T06:57:48.871Z,76.30
2023-04-18T07:00:16.177Z,76.20
2023-04-18T07:02:43.629Z,76.00
2023-04-18T07:05:10.912Z,75.80
2023-04-18T07:07:37.898Z,75.80
2023-04-18T07:10:07.188Z,75.70
2023-04-18T07:12:34.151Z,75.50
2023-04-18T07:15:01.112Z,75.40
2023-04-18T07:17:28.032Z,75.20
2023-04-18T07:19:55.063Z,75.20
2023-04-18T07:22:21.942Z,75.40
2023-04-18T07:24:49.116Z,76.10
2023-04-18T07:27:16.158Z,75.50
2023-04-18T07:29:43.136Z,75.40
2023-04-18T07:32:10.897Z,75.30
2023-04-18T07:34:37.814Z,75.10
2023-04-18T07:37:04.859Z,75.00
2023-04-18T07:39:35.894Z,75.10
2023-04-18T07:42:06.357Z,75.00
2023-04-18T07:44:36.042Z,74.80
2023-04-18T07:47:04.194Z,74.70
2023-04-18T07:49:31.338Z,74.60
2023-04-18T07:52:01.139Z,74.30
2023-04-18T07:54:28.062Z,74.20
2023-04-18T07:56:55.328Z,74.20
2023-04-18T07:59:22.467Z,74.40
2023-04-18T08:01:49.562Z,74.20
2023-04-18T08:04:16.780Z,73.70
2023-04-18T08:06:43.858Z,73.40
2023-04-18T08:09:12.082Z,73.20
2023-04-18T08:11:39.335Z,73.10
2023-04-18T08:14:06.283Z,73.30
2023-04-18T08:16:33.427Z,73.30
2023-04-18T08:19:00.471Z,73.60
2023-04-18T08:21:29.216Z,73.70
2023-04-18T08:23:56.155Z,73.50
2023-04-18T08:26:23.371Z,73.70
2023-04-18T08:28:51.211Z,73.80
2023-04-18T08:31:18.212Z,73.90
2023-04-18T08:33:45.495Z,74.00
2023-04-18T08:36:12.893Z,73.80
2023-04-18T08:38:39.915Z,73.70
2023-04-18T08:41:07.980Z,73.50
2023-04-18T08:43:34.883Z,73.30
2023-04-18T08:46:02.072Z,73.10
2023-04-18T08:48:29.327Z,73.20
2023-04-18T08:51:00.054Z,73.20
2023-04-18T08:53:27.594Z,73.10
2023-04-18T08:55:56.404Z,73.00
2023-04-18T08:58:24.225Z,73.00
2023-04-18T09:00:54.998Z,73.00
2023-04-18T09:03:43.112Z,72.90
2023-04-18T09:06:18.823Z,72.60
2023-04-18T09:08:59.042Z,72.60
2023-04-18T09:11:32.481Z,72.60
2023-04-18T09:13:59.961Z,72.50
2023-04-18T09:16:28.110Z,72.50
2023-04-18T09:19:14.752Z,72.40
2023-04-18T09:21:46.309Z,72.20
2023-04-18T09:24:29.275Z,72.30
2023-04-18T09:27:00.079Z,72.20
2023-04-18T09:29:49.445Z,71.90
2023-04-18T09:32:25.258Z,71.90
2023-04-18T09:35:04.933Z,71.60
2023-04-18T09:37:35.607Z,71.30
2023-04-18T09:40:17.112Z,71.40
2023-04-18T09:42:51.093Z,71.50
2023-04-18T09:45:20.837Z,71.40
2023-04-18T09:47:47.912Z,71.40
2023-04-18T09:50:20.568Z,71.30
2023-04-18T09:52:48.749Z,71.10
2023-04-18T09:55:18.374Z,71.00
2023-04-18T09:57:48.641Z,70.90
2023-04-18T10:00:25.566Z,70.70
2023-04-18T10:03:08.237Z,70.50
2023-04-18T10:05:39.345Z,70.80
2023-04-18T10:08:07.930Z,71.20
2023-04-18T10:10:35.176Z,71.10
2023-04-18T10:13:03.649Z,70.90
2023-04-18T10:15:31.917Z,70.80
2023-04-18T10:18:07.003Z,71.20
2023-04-18T10:20:35.396Z,70.10
2023-04-18T10:23:37.369Z,70.70
2023-04-18T10:26:05.695Z,69.70
2023-04-18T10:28:53.688Z,69.20
2023-04-18T10:31:22.962Z,68.70
2023-04-18T10:34:04.553Z,68.80
2023-04-18T10:37:04.085Z,68.40
2023-04-18T10:39:31.143Z,68.40
2023-04-18T10:41:58.310Z,68.70
2023-04-18T10:44:25.733Z,68.90
2023-04-18T10:46:52.872Z,68.90
2023-04-18T10:49:21.943Z,69.20
2023-04-18T10:51:52.000Z,69.10
2023-04-18T10:54:50.002Z,69.20
2023-04-18T10:57:17.331Z,69.30
2023-04-18T10:59:48.579Z,69.60
2023-04-18T11:02:34.311Z,69.60
2023-04-18T11:05:13.649Z,69.60
2023-04-18T11:07:48.506Z,69.40
2023-04-18T11:10:21.155Z,69.60
2023-04-18T11:12:55.225Z,69.70
2023-04-18T11:15:24.839Z,69.90
2023-04-18T11:18:01.674Z,69.70
2023-04-18T11:20:30.493Z,69.70
2023-04-18T11:22:59.807Z,69.50
2023-04-18T11:25:32.622Z,69.10
2023-04-18T11:28:01.012Z,69.00
2023-04-18T11:30:38.113Z,69.30
2023-04-18T11:33:07.731Z,69.30
2023-04-18T11:35:42.525Z,69.60
2023-04-18T11:38:11.998Z,69.80
2023-04-18T11:40:39.159Z,69.70
2023-04-18T11:43:07.235Z,70.00
2023-04-18T11:45:34.353Z,70.10
2023-04-18T11:48:04.436Z,70.10
2023-04-18T11:50:37.176Z,70.20
2023-04-18T11:53:04.277Z,70.30
2023-04-18T11:55:31.329Z,70.20
2023-04-18T11:58:00.580Z,70.10
2023-04-18T12:00:32.643Z,69.90
2023-04-18T12:03:09.889Z,69.90
2023-04-18T12:05:38.892Z,69.90
2023-04-18T12:08:19.439Z,69.70
2023-04-18T12:10:51.398Z,69.40
2023-04-18T12:13:19.547Z,69.00
2023-04-18T12:15:47.182Z,68.70
2023-04-18T12:18:17.014Z,68.50
2023-04-18T12:20:54.874Z,68.50
2023-04-18T12:23:37.637Z,68.30
2023-04-18T12:26:11.196Z,68.90
2023-04-18T12:28:38.491Z,68.30
2023-04-18T12:31:08.752Z,68.00
2023-04-18T12:33:38.887Z,67.70
2023-04-18T12:36:08.223Z,67.40
2023-04-18T12:38:37.637Z,67.20
2023-04-18T12:41:05.535Z,67.00
2023-04-18T12:43:32.756Z,67.00
2023-04-18T12:46:00.298Z,67.30
2023-04-18T12:48:28.772Z,67.30
2023-04-18T12:50:55.932Z,67.50
2023-04-18T12:53:22.936Z,67.70
2023-04-18T12:55:50.136Z,67.80
2023-04-18T12:58:18.862Z,67.70
2023-04-18T13:00:46.269Z,67.50
2023-04-18T13:03:16.004Z,67.50
2023-04-18T13:05:43.304Z,67.40
2023-04-18T13:08:17.009Z,67.70
2023-04-18T13:11:17.986Z,67.80
2023-04-18T13:13:45.132Z,67.90
2023-04-18T13:16:23.720Z,68.10
2023-04-18T13:19:00.757Z,68.00
2023-04-18T13:21:35.248Z,67.80
2023-04-18T13:24:02.451Z,67.80
2023-04-18T13:26:29.599Z,67.70
2023-04-18T13:28:59.362Z,67.90
2023-04-18T13:31:33.598Z,67.90
2023-04-18T13:34:00.960Z,67.70
2023-04-18T13:39:59.973Z,66.80
2023-04-18T13:42:28.459Z,66.30
2023-04-18T13:44:57.029Z,66.20
2023-04-18T13:47:48.781Z,66.60
2023-04-18T13:50:19.253Z,66.40
2023-04-18T13:53:18.669Z,66.40
2023-04-18T13:55:46.331Z,65.90
2023-04-18T14:02:04.146Z,66.20
2023-04-18T14:04:55.454Z,65.60
2023-04-18T14:07:20.348Z,65.30
2023-04-18T14:09:48.196Z,65.40
2023-04-18T14:12:15.515Z,65.40
2023-04-18T14:14:42.467Z,65.10
2023-04-18T14:17:09.453Z,65.00
2023-04-18T14:19:36.477Z,64.80
2023-04-18T14:22:07.939Z,64.90
2023-04-18T14:24:38.161Z,65.10
2023-04-18T14:27:05.465Z,64.90
2023-04-18T14:30:01.152Z,64.90
2023-04-18T14:34:05.378Z,64.40
2023-04-18T14:36:32.805Z,64.20
2023-04-18T14:38:59.864Z,61.90
2023-04-18T14:41:29.727Z,59.80
2023-04-18T14:43:58.090Z,59.20
2023-04-18T14:46:49.052Z,59.80
2023-04-18T14:49:16.487Z,60.60
2023-04-18T14:51:43.716Z,61.50
2023-04-18T14:54:10.671Z,61.70
2023-04-18T14:56:37.726Z,59.90
2023-04-18T14:59:04.717Z,57.80
2023-04-18T15:01:31.822Z,57.50
2023-04-18T15:03:59.752Z,57.80
2023-04-18T15:06:28.957Z,58.80
2023-04-18T15:09:15.519Z,59.10
2023-04-18T15:11:51.677Z,57.40
2023-04-18T15:14:19.093Z,56.20
2023-04-18T15:16:49.757Z,55.70
2023-04-18T15:24:09.848Z,55.00
2023-04-18T15:27:21.704Z,55.60
2023-04-18T15:29:48.747Z,56.50
2023-04-18T15:32:16.772Z,58.10
2023-04-18T15:34:46.462Z,58.80
2023-04-18T15:37:13.541Z,59.20
2023-04-18T15:39:40.988Z,59.40
2023-04-18T15:45:51.181Z,60.50
2023-04-18T15:48:18.384Z,60.90
2023-04-18T15:50:53.082Z,61.10
2023-04-18T15:53:20.266Z,61.40
2023-04-18T15:55:47.325Z,61.40
2023-04-18T15:58:14.521Z,60.10
2023-04-18T16:00:41.688Z,58.00
2023-04-18T16:03:10.477Z,56.60
2023-04-18T16:05:49.473Z,56.10
2023-04-18T16:08:16.879Z,55.20
2023-04-18T16:10:44.011Z,54.40
2023-04-18T16:13:11.007Z,53.60
2023-04-18T16:16:50.635Z,52.30
2023-04-18T16:19:23.712Z,51.50
2023-04-18T16:32:59.942Z,50.10
2023-04-18T16:35:48.256Z,50.20
2023-04-18T16:38:15.353Z,50.00
2023-04-18T16:40:42.418Z,49.80
2023-04-18T16:43:09.794Z,49.40
2023-04-18T16:45:39.807Z,49.30
2023-04-18T16:48:07.031Z,49.20
2023-04-18T16:50:34.148Z,49.60
2023-04-18T16:53:01.908Z,51.00
2023-04-18T16:55:29.179Z,52.50
2023-04-18T16:57:56.596Z,53.90
2023-04-18T17:00:23.871Z,55.30
2023-04-18T17:02:51.135Z,56.40
2023-04-18T17:05:18.805Z,55.40
2023-04-18T17:07:47.889Z,54.60
2023-04-18T17:10:15.233Z,53.50
2023-04-18T17:12:42.470Z,52.70
2023-04-18T17:15:09.749Z,53.00
2023-04-18T17:17:37.167Z,52.80
2023-04-18T17:20:07.141Z,52.20
2023-04-18T17:22:34.793Z,51.70
2023-04-18T17:25:03.301Z,51.90
2023-04-18T17:27:51.192Z,52.90
2023-04-18T17:30:27.677Z,54.20
2023-04-18T17:33:01.821Z,55.60
2023-04-18T17:35:32.001Z,57.00
2023-04-18T17:38:03.620Z,57.70
2023-04-18T17:40:30.649Z,58.50
2023-04-18T17:43:24.464Z,58.90
2023-04-18T17:46:23.003Z,59.20
2023-04-18T17:59:50.434Z,60.60
2023-04-18T18:02:30.917Z,60.90
2023-04-18T18:04:58.683Z,61.10
2023-04-18T18:20:15.464Z,62.00
2023-04-18T18:22:45.686Z,62.30
2023-04-18T18:25:15.866Z,62.50
2023-04-18T18:27:44.296Z,62.80
2023-04-18T18:30:11.718Z,63.00
2023-04-18T18:32:38.834Z,63.20
2023-04-18T18:35:06.352Z,63.40
2023-04-18T18:37:36.709Z,63.60
2023-04-18T18:41:14.196Z,63.80
2023-04-18T18:48:10.871Z,64.20
2023-04-18T18:50:37.894Z,64.50
2023-04-18T18:53:06.262Z,64.70
2023-04-18T18:59:29.852Z,65.00
2023-04-18T19:01:59.841Z,65.20
2023-04-18T19:04:27.136Z,65.40
2023-04-18T19:06:56.679Z,65.50
2023-04-18T19:09:24.584Z,65.70
2023-04-18T19:11:53.688Z,65.80
2023-04-18T19:14:20.948Z,65.90
2023-04-18T19:16:48.015Z,66.10
2023-04-18T19:19:18.276Z,66.20
2023-04-18T19:21:46.090Z,66.30
2023-04-18T19:24:13.638Z,66.50
2023-04-18T19:26:41.894Z,66.60
2023-04-18T19:29:11.477Z,66.60
2023-04-18T19:31:38.562Z,66.80
2023-04-18T19:34:05.711Z,66.70
2023-04-18T19:36:32.995Z,66.80
2023-04-18T19:39:00.126Z,66.90
2023-04-18T19:42:05.093Z,67.00
2023-04-18T19:44:35.125Z,67.00
2023-04-18T19:47:12.069Z,67.20
2023-04-18T19:49:42.070Z,67.30
2023-04-18T19:52:09.308Z,67.30
2023-04-18T19:54:36.482Z,67.40
2023-04-18T19:57:40.474Z,67.50
2023-04-18T20:00:09.479Z,67.50
2023-04-18T20:02:40.802Z,67.70
2023-04-18T20:08:12.523Z,68.10
2023-04-18T20:11:00.026Z,68.00
2023-04-18T20:13:33.315Z,68.10
2023-04-18T20:16:01.172Z,68.30
2023-04-18T20:18:32.530Z,68.40
2023-04-18T20:21:07.620Z,68.60
2023-04-18T20:23:40.495Z,68.50
2023-04-18T20:26:11.928Z,68.60
2023-04-18T20:28:41.369Z,68.80
2023-04-18T20:44:16.649Z,69.20
2023-04-18T21:08:26.292Z,70.10
2023-04-18T21:10:57.570Z,70.10
2023-04-18T21:13:51.894Z,70.20
2023-04-18T21:16:19.261Z,70.30
2023-04-18T21:18:46.427Z,70.50
2023-04-18T21:21:16.994Z,70.50
2023-04-18T21:23:44.930Z,70.50
2023-04-18T21:26:15.587Z,70.60
2023-04-18T21:29:00.054Z,70.70
2023-04-18T21:31:29.359Z,70.80
2023-04-18T21:34:00.909Z,70.90
2023-04-18T21:36:36.954Z,71.00
2023-04-18T21:39:04.235Z,71.00
2023-04-18T21:41:31.191Z,71.10
2023-04-18T21:44:01.328Z,71.10
2023-04-18T21:46:31.193Z,71.30
2023-04-18T21:49:01.112Z,71.20
2023-04-18T21:51:29.321Z,71.30
2023-04-18T21:53:56.417Z,71.30
2023-04-18T21:56:25.935Z,71.60
2023-04-18T21:58:53.146Z,71.60
2023-04-18T22:01:20.327Z,71.70
2023-04-18T22:03:47.478Z,71.70
2023-04-18T22:06:17.260Z,71.70
2023-04-18T22:08:44.268Z,71.80
2023-04-18T22:11:11.673Z,71.80
2023-04-18T22:13:38.779Z,71.90
2023-04-18T22:16:08.535Z,72.00
2023-04-18T22:18:38.346Z,72.10
2023-04-18T22:21:05.402Z,72.10
2023-04-18T22:23:32.598Z,72.10
2023-04-18T22:25:59.844Z,72.30
2023-04-18T22:28:28.154Z,72.20
2023-04-18T22:30:55.357Z,72.30
2023-04-18T22:33:22.324Z,72.30
2023-04-18T22:35:49.301Z,72.40
2023-04-18T22:38:16.430Z,72.50
2023-04-18T22:40:43.372Z,72.40
2023-04-18T22:43:10.335Z,72.40
2023-04-18T22:45:37.288Z,72.20
2023-04-18T22:48:04.704Z,72.10
2023-04-18T22:50:31.706Z,71.90
2023-04-18T22:52:58.658Z,71.90
2023-04-18T22:55:25.621Z,71.90
2023-04-18T22:57:52.593Z,72.00
2023-04-18T23:00:20.011Z,71.80
2023-04-18T23:02:47.444Z,71.80
2023-04-18T23:05:17.424Z,71.90
2023-04-18T23:07:44.953Z,71.90
2023-04-18T23:10:12.184Z,71.90
2023-04-18T23:12:39.368Z,71.80
2023-04-18T23:15:07.062Z,71.80
2023-04-18T23:17:34.992Z,71.90
2023-04-18T23:20:02.072Z,71.90
2023-04-18T23:22:32.403Z,72.00
2023-04-18T23:24:59.401Z,72.00
2023-04-18T23:27:26.404Z,72.00
2023-04-18T23:29:53.371Z,72.10
2023-04-18T23:32:20.436Z,72.20
2023-04-18T23:34:47.467Z,72.30
2023-04-18T23:37:17.044Z,72.30
2023-04-18T23:39:44.035Z,72.30
2023-04-18T23:42:11.093Z,72.30
2023-04-18T23:44:38.139Z,72.40
2023-04-18T23:47:05.278Z,72.40
2023-04-18T23:49:32.299Z,72.50
2023-04-18T23:51:59.288Z,72.60
2023-04-18T23:54:26.302Z,72.70
2023-04-18T23:56:53.308Z,72.80
2023-04-18T23:59:20.315Z,73.00
